David C. Devall — WCP2979 — position and weather

sailwx.info

Track history (hours):
 
Tides and Currents Weather Stations Pressure Air Temp Water Temp Dewpoint Dewpoint Depression Visibility Wind Speed Wind Dir Waves Ship Positions

David C. Devall

Owner: DAVID C DEVALL INC, HACKBERRY, LA. More information available from US FCC via Universal Licensing System and Coast Guard Vessel Documentation Center.

Last reported at 2017-Dec-15 16:00 UTC. Time now 2017-Dec-15 16:02 UTC.
Position N 30°12' W 093°18'.

Length 17 m; draft 8.5 m.

Type: Towing. MMSI: 366973440.

Date/timePositionNaut miles runAvg speedWind from/ knotsBaromVisibWave heightAir tempDewpointWater temp
2017-Dec-15 16:00N 30°12' W 093°18'3 5.8
2017-Dec-15 15:30N 30°13' W 093°15'2 3.1
2017-Dec-15 15:00N 30°15' W 093°15'1 1.1
2017-Dec-15 14:30N 30°14' W 093°15'1 2.1
2017-Dec-15 14:00N 30°13' W 093°15'2 4.3
2017-Dec-15 13:30N 30°12' W 093°17'2 4.7
2017-Dec-15 13:00N 30°10' W 093°19'2 3.8
2017-Dec-15 12:30N 30°09' W 093°20'2 3.9
2017-Dec-15 12:00N 30°07' W 093°20'2 3.1
2017-Dec-15 11:30N 30°05' W 093°20'2 3.7
2017-Dec-15 11:00N 30°04' W 093°21'0 0.0
2017-Dec-15 10:30N 30°04' W 093°21'0 0.0
2017-Dec-15 10:00N 30°04' W 093°21'0 0.0
2017-Dec-15 09:30N 30°04' W 093°21'0 0.0
2017-Dec-15 09:00N 30°04' W 093°21'0 0.0
2017-Dec-15 08:30N 30°04' W 093°21'0 0.0
2017-Dec-15 08:00N 30°04' W 093°21'0 0.0
2017-Dec-15 07:30N 30°04' W 093°21'0 0.0
2017-Dec-15 07:00N 30°04' W 093°21'0 0.0
2017-Dec-15 06:30N 30°04' W 093°21'0 0.0
2017-Dec-15 06:00N 30°04' W 093°21'0 0.0
2017-Dec-15 05:30N 30°04' W 093°21'0 0.0
2017-Dec-15 05:00N 30°04' W 093°21'0 0.0
2017-Dec-15 04:30N 30°04' W 093°21'0 0.0
2017-Dec-15 04:00N 30°04' W 093°21'0 0.0
2017-Dec-15 02:30N 30°04' W 093°21'0 0.0
2017-Dec-15 01:00N 30°04' W 093°21'0 0.0
2017-Dec-15 00:30N 30°04' W 093°21'3 0.4
2017-Dec-14 18:28N 30°06' W 093°19'0 0.0
2017-Dec-14 18:00N 30°06' W 093°19'0 0.1
2017-Dec-14 17:30N 30°06' W 093°19'1 1.6
2017-Dec-14 17:00N 30°05' W 093°20'0 0.1
2017-Dec-14 16:30N 30°05' W 093°20'0 0.0
2017-Dec-14 16:00N 30°05' W 093°20'2 2.1
2017-Dec-14 14:58N 30°04' W 093°22'0 0.3
2017-Dec-14 14:25N 30°04' W 093°22'0 0.1
2017-Dec-14 14:00N 30°04' W 093°22'0 0.3
2017-Dec-14 13:29N 30°04' W 093°21'0 0.0
2017-Dec-14 13:00N 30°04' W 093°21'1 2.0
2017-Dec-14 12:30N 30°04' W 093°21'2 3.3
2017-Dec-14 12:00N 30°06' W 093°19'1 1.1
2017-Dec-14 11:30N 30°05' W 093°20'2 4.0
2017-Dec-14 11:00N 30°04' W 093°21'0 0.0
2017-Dec-14 10:30N 30°04' W 093°21'0 0.0
2017-Dec-14 09:48N 30°04' W 093°21'0 0.0
2017-Dec-14 09:30N 30°04' W 093°21'0 0.0
2017-Dec-14 09:00N 30°04' W 093°21'0 0.0
2017-Dec-14 08:30N 30°04' W 093°21'0 0.0
2017-Dec-14 08:00N 30°04' W 093°21'0 0.0
2017-Dec-14 07:30N 30°04' W 093°21'0 0.0
2017-Dec-14 06:59N 30°04' W 093°21'0 0.0
2017-Dec-14 06:30N 30°04' W 093°21'0 0.0
2017-Dec-14 06:00N 30°04' W 093°21'0 0.0
2017-Dec-14 05:30N 30°04' W 093°21'0 0.0
2017-Dec-14 05:00N 30°04' W 093°21'0 0.0
2017-Dec-14 04:30N 30°04' W 093°21'0 0.0
2017-Dec-14 04:00N 30°04' W 093°21'0 0.0
2017-Dec-14 03:30N 30°04' W 093°21'0 0.0
2017-Dec-14 03:00N 30°04' W 093°21'0 0.0
2017-Dec-14 02:30N 30°04' W 093°21'0 0.0
2017-Dec-14 02:00N 30°04' W 093°21'0 0.0
2017-Dec-14 01:30N 30°04' W 093°21'1 2.3
2017-Dec-14 01:00N 30°04' W 093°20'0 0.1
2017-Dec-14 00:30N 30°04' W 093°20'0 0.6
2017-Dec-14 00:00N 30°05' W 093°20'2 3.3
2017-Dec-13 23:30N 30°04' W 093°22'0 0.8
2017-Dec-13 23:01N 30°04' W 093°21'0 0.9
2017-Dec-13 22:30N 30°04' W 093°22'0 0.0
2017-Dec-13 22:00N 30°04' W 093°22'0 0.0
2017-Dec-13 21:30N 30°04' W 093°22'0 0.1
2017-Dec-13 21:01N 30°04' W 093°22'2 4.5
2017-Dec-13 20:30N 30°05' W 093°20'3 6.4
2017-Dec-13 20:00N 30°08' W 093°20'3 6.1
2017-Dec-13 19:30N 30°11' W 093°18'3 6.3
2017-Dec-13 19:00N 30°13' W 093°16'1 1.7
2017-Dec-13 18:30N 30°14' W 093°15'1 1.2
2017-Dec-13 18:00N 30°13' W 093°15'3 6.6
2017-Dec-13 17:30N 30°11' W 093°18'3 6.8
2017-Dec-13 17:00N 30°08' W 093°20'3 6.4
2017-Dec-13 16:30N 30°05' W 093°20'2 3.7
2017-Dec-13 16:00N 30°04' W 093°22'0 0.0
2017-Dec-13 15:30N 30°04' W 093°22'1 2.9
2017-Dec-13 15:00N 30°05' W 093°20'0 0.0
2017-Dec-13 14:30N 30°05' W 093°20'0 0.3
2017-Dec-13 14:00N 30°04' W 093°20'0 0.1
2017-Dec-13 13:30N 30°04' W 093°20'0 0.1
2017-Dec-13 13:01N 30°04' W 093°20'0 0.3
2017-Dec-13 12:30N 30°05' W 093°20'0 0.0
2017-Dec-13 12:00N 30°05' W 093°20'0 0.0
2017-Dec-13 11:30N 30°05' W 093°20'0 0.0
2017-Dec-13 11:00N 30°05' W 093°20'0 0.0
2017-Dec-13 10:31N 30°05' W 093°20'2 4.3
2017-Dec-13 10:00N 30°06' W 093°19'0 0.7
2017-Dec-13 09:30N 30°06' W 093°18'0 0.1
2017-Dec-13 09:00N 30°06' W 093°18'0 0.0
2017-Dec-13 08:30N 30°06' W 093°18'0 0.0
2017-Dec-13 08:01N 30°06' W 093°18'0 0.0
2017-Dec-13 07:31N 30°06' W 093°18'0 0.0
2017-Dec-13 07:00N 30°06' W 093°18'0 0.0
2017-Dec-13 06:30N 30°06' W 093°18'0 0.7
2017-Dec-13 06:01N 30°06' W 093°19'0 0.1
2017-Dec-13 05:30N 30°06' W 093°19'0 0.0
2017-Dec-13 05:00N 30°06' W 093°19'0 0.0
2017-Dec-13 04:30N 30°06' W 093°19'0 0.0
2017-Dec-13 04:00N 30°06' W 093°19'1 2.3
2017-Dec-13 03:31N 30°05' W 093°20'2 4.3
2017-Dec-13 03:00N 30°04' W 093°21'0 0.0
2017-Dec-13 02:30N 30°04' W 093°21'0 0.0
2017-Dec-13 02:00N 30°04' W 093°21'0 0.0
2017-Dec-13 01:30N 30°04' W 093°21'0 0.0
2017-Dec-13 01:00N 30°04' W 093°21'0 0.0
2017-Dec-13 00:30N 30°04' W 093°21'0 0.3
2017-Dec-13 00:00N 30°04' W 093°21'2 3.7
2017-Dec-12 23:31N 30°05' W 093°20'0 0.0
2017-Dec-12 23:00N 30°05' W 093°20'0 0.5
2017-Dec-12 22:30N 30°05' W 093°20'0 0.0
2017-Dec-12 22:00N 30°05' W 093°20'0 0.0
2017-Dec-12 21:30N 30°05' W 093°20'1 1.9
2017-Dec-12 21:00N 30°06' W 093°20'0 0.0
2017-Dec-12 20:31N 30°06' W 093°20'0 0.2
2017-Dec-12 20:00N 30°06' W 093°20'0 0.0
2017-Dec-12 19:30N 30°06' W 093°20'0 0.1
2017-Dec-12 19:01N 30°06' W 093°20'1 1.5
2017-Dec-12 18:31N 30°05' W 093°20'2 3.7
2017-Dec-12 18:00N 30°04' W 093°21'0 0.7
2017-Dec-12 17:30N 30°04' W 093°22'0 0.8
2017-Dec-12 17:00N 30°04' W 093°21'0 0.8
2017-Dec-12 16:30N 30°04' W 093°22'0 0.8
2017-Dec-12 16:00N 30°04' W 093°21'0 0.0
2017-Dec-12 15:30N 30°04' W 093°21'0 0.1
2017-Dec-12 15:00N 30°04' W 093°21'0 0.0
2017-Dec-12 14:30N 30°04' W 093°21'0 0.7
2017-Dec-12 14:01N 30°04' W 093°22'0 0.7
2017-Dec-12 13:30N 30°04' W 093°21'0 0.6
2017-Dec-12 13:00N 30°04' W 093°22'0 0.8
2017-Dec-12 12:30N 30°04' W 093°22'4 7.6
2017-Dec-12 12:00N 30°04' W 093°26'6 7.2
2017-Dec-12 11:07N 30°04' W 093°34'1 7.4
2017-Dec-12 11:00N 30°04' W 093°35'74 7.0
2017-Dec-12 00:20N 29°23' W 094°46'2 4.9
2017-Dec-11 23:55N 29°23' W 094°49'8 8.1
2017-Dec-11 22:55N 29°30' W 094°53'3 8.0
2017-Dec-11 22:30N 29°33' W 094°55'4 8.0
2017-Dec-11 21:58N 29°37' W 094°57'4 7.9
2017-Dec-11 21:27N 29°41' W 094°59'8 3.5
2017-Dec-11 19:01N 29°46' W 095°06'0 0.1
2017-Dec-11 18:48N 29°46' W 095°06'1 2.4
2017-Dec-11 18:30N 29°46' W 095°05'3 5.4
2017-Dec-11 18:00N 29°44' W 095°03'3 5.1
2017-Dec-11 17:30N 29°42' W 095°01'0 0.2
2017-Dec-11 16:52N 29°42' W 095°01'6 1.8
2017-Dec-11 13:27N 29°46' W 095°06'0 0.0
2017-Dec-11 12:48N 29°46' W 095°06'1 0.0
2017-Dec-10 13:32N 29°47' W 095°06'0 0.0
2017-Dec-10 13:23N 29°47' W 095°06'0 0.0
2017-Dec-10 12:58N 29°47' W 095°06'0 0.0
2017-Dec-10 12:14N 29°47' W 095°06'0 0.0
2017-Dec-10 11:52N 29°47' W 095°06'0 0.0
2017-Dec-10 10:13N 29°47' W 095°06'0 0.0
2017-Dec-10 09:47N 29°47' W 095°06'0 0.0
2017-Dec-10 09:26N 29°47' W 095°06'0 0.0
2017-Dec-09 15:05N 29°47' W 095°06'0 0.0
2017-Dec-09 14:48N 29°47' W 095°06'0 0.0
2017-Dec-09 14:29N 29°47' W 095°06'0 0.0
2017-Dec-09 13:59N 29°47' W 095°06'0 0.0
2017-Dec-09 13:30N 29°47' W 095°06'0 0.0
2017-Dec-09 11:24N 29°47' W 095°06'0 0.0
2017-Dec-09 10:48N 29°47' W 095°06'0 0.0
2017-Dec-09 09:20N 29°47' W 095°06'0 0.0
2017-Dec-08 22:57N 29°47' W 095°06'1 0.3
2017-Dec-08 20:44N 29°46' W 095°06'  
Track history (hours):
 
Tides and Currents Weather Stations Pressure Air Temp Water Temp Dewpoint Dewpoint Depression Visibility Wind Speed Wind Dir Waves Ship Positions

David C. Devall

Owner: DAVID C DEVALL INC, HACKBERRY, LA. More information available from US FCC via Universal Licensing System and Coast Guard Vessel Documentation Center.

Last reported at 2017-Dec-15 16:00 UTC. Time now 2017-Dec-15 16:02 UTC.
Position N 30°12' W 093°18'.

Length 17 m; draft 8.5 m.

Type: Towing. MMSI: 366973440.

Date/timePositionNaut miles runAvg speedWind from/ knotsBaromVisibWave heightAir tempDewpointWater temp
2017-Dec-15 16:00N 30°12' W 093°18'3 5.8
2017-Dec-15 15:30N 30°13' W 093°15'2 3.1
2017-Dec-15 15:00N 30°15' W 093°15'1 1.1
2017-Dec-15 14:30N 30°14' W 093°15'1 2.1
2017-Dec-15 14:00N 30°13' W 093°15'2 4.3
2017-Dec-15 13:30N 30°12' W 093°17'2 4.7
2017-Dec-15 13:00N 30°10' W 093°19'2 3.8
2017-Dec-15 12:30N 30°09' W 093°20'2 3.9
2017-Dec-15 12:00N 30°07' W 093°20'2 3.1
2017-Dec-15 11:30N 30°05' W 093°20'2 3.7
2017-Dec-15 11:00N 30°04' W 093°21'0 0.0
2017-Dec-15 10:30N 30°04' W 093°21'0 0.0
2017-Dec-15 10:00N 30°04' W 093°21'0 0.0
2017-Dec-15 09:30N 30°04' W 093°21'0 0.0
2017-Dec-15 09:00N 30°04' W 093°21'0 0.0
2017-Dec-15 08:30N 30°04' W 093°21'0 0.0
2017-Dec-15 08:00N 30°04' W 093°21'0 0.0
2017-Dec-15 07:30N 30°04' W 093°21'0 0.0
2017-Dec-15 07:00N 30°04' W 093°21'0 0.0
2017-Dec-15 06:30N 30°04' W 093°21'0 0.0
2017-Dec-15 06:00N 30°04' W 093°21'0 0.0
2017-Dec-15 05:30N 30°04' W 093°21'0 0.0
2017-Dec-15 05:00N 30°04' W 093°21'0 0.0
2017-Dec-15 04:30N 30°04' W 093°21'0 0.0
2017-Dec-15 04:00N 30°04' W 093°21'0 0.0
2017-Dec-15 02:30N 30°04' W 093°21'0 0.0
2017-Dec-15 01:00N 30°04' W 093°21'0 0.0
2017-Dec-15 00:30N 30°04' W 093°21'3 0.4
2017-Dec-14 18:28N 30°06' W 093°19'0 0.0
2017-Dec-14 18:00N 30°06' W 093°19'0 0.1
2017-Dec-14 17:30N 30°06' W 093°19'1 1.6
2017-Dec-14 17:00N 30°05' W 093°20'0 0.1
2017-Dec-14 16:30N 30°05' W 093°20'0 0.0
2017-Dec-14 16:00N 30°05' W 093°20'2 2.1
2017-Dec-14 14:58N 30°04' W 093°22'0 0.3
2017-Dec-14 14:25N 30°04' W 093°22'0 0.1
2017-Dec-14 14:00N 30°04' W 093°22'0 0.3
2017-Dec-14 13:29N 30°04' W 093°21'0 0.0
2017-Dec-14 13:00N 30°04' W 093°21'1 2.0
2017-Dec-14 12:30N 30°04' W 093°21'2 3.3
2017-Dec-14 12:00N 30°06' W 093°19'1 1.1
2017-Dec-14 11:30N 30°05' W 093°20'2 4.0
2017-Dec-14 11:00N 30°04' W 093°21'0 0.0
2017-Dec-14 10:30N 30°04' W 093°21'0 0.0
2017-Dec-14 09:48N 30°04' W 093°21'0 0.0
2017-Dec-14 09:30N 30°04' W 093°21'0 0.0
2017-Dec-14 09:00N 30°04' W 093°21'0 0.0
2017-Dec-14 08:30N 30°04' W 093°21'0 0.0
2017-Dec-14 08:00N 30°04' W 093°21'0 0.0
2017-Dec-14 07:30N 30°04' W 093°21'0 0.0
2017-Dec-14 06:59N 30°04' W 093°21'0 0.0
2017-Dec-14 06:30N 30°04' W 093°21'0 0.0
2017-Dec-14 06:00N 30°04' W 093°21'0 0.0
2017-Dec-14 05:30N 30°04' W 093°21'0 0.0
2017-Dec-14 05:00N 30°04' W 093°21'0 0.0
2017-Dec-14 04:30N 30°04' W 093°21'0 0.0
2017-Dec-14 04:00N 30°04' W 093°21'0 0.0
2017-Dec-14 03:30N 30°04' W 093°21'0 0.0
2017-Dec-14 03:00N 30°04' W 093°21'0 0.0
2017-Dec-14 02:30N 30°04' W 093°21'0 0.0
2017-Dec-14 02:00N 30°04' W 093°21'0 0.0
2017-Dec-14 01:30N 30°04' W 093°21'1 2.3
2017-Dec-14 01:00N 30°04' W 093°20'0 0.1
2017-Dec-14 00:30N 30°04' W 093°20'0 0.6
2017-Dec-14 00:00N 30°05' W 093°20'2 3.3
2017-Dec-13 23:30N 30°04' W 093°22'0 0.8
2017-Dec-13 23:01N 30°04' W 093°21'0 0.9
2017-Dec-13 22:30N 30°04' W 093°22'0 0.0
2017-Dec-13 22:00N 30°04' W 093°22'0 0.0
2017-Dec-13 21:30N 30°04' W 093°22'0 0.1
2017-Dec-13 21:01N 30°04' W 093°22'2 4.5
2017-Dec-13 20:30N 30°05' W 093°20'3 6.4
2017-Dec-13 20:00N 30°08' W 093°20'3 6.1
2017-Dec-13 19:30N 30°11' W 093°18'3 6.3
2017-Dec-13 19:00N 30°13' W 093°16'1 1.7
2017-Dec-13 18:30N 30°14' W 093°15'1 1.2
2017-Dec-13 18:00N 30°13' W 093°15'3 6.6
2017-Dec-13 17:30N 30°11' W 093°18'3 6.8
2017-Dec-13 17:00N 30°08' W 093°20'3 6.4
2017-Dec-13 16:30N 30°05' W 093°20'2 3.7
2017-Dec-13 16:00N 30°04' W 093°22'0 0.0
2017-Dec-13 15:30N 30°04' W 093°22'1 2.9
2017-Dec-13 15:00N 30°05' W 093°20'0 0.0
2017-Dec-13 14:30N 30°05' W 093°20'0 0.3
2017-Dec-13 14:00N 30°04' W 093°20'0 0.1
2017-Dec-13 13:30N 30°04' W 093°20'0 0.1
2017-Dec-13 13:01N 30°04' W 093°20'0 0.3
2017-Dec-13 12:30N 30°05' W 093°20'0 0.0
2017-Dec-13 12:00N 30°05' W 093°20'0 0.0
2017-Dec-13 11:30N 30°05' W 093°20'0 0.0
2017-Dec-13 11:00N 30°05' W 093°20'0 0.0
2017-Dec-13 10:31N 30°05' W 093°20'2 4.3
2017-Dec-13 10:00N 30°06' W 093°19'0 0.7
2017-Dec-13 09:30N 30°06' W 093°18'0 0.1
2017-Dec-13 09:00N 30°06' W 093°18'0 0.0
2017-Dec-13 08:30N 30°06' W 093°18'0 0.0
2017-Dec-13 08:01N 30°06' W 093°18'0 0.0
2017-Dec-13 07:31N 30°06' W 093°18'0 0.0
2017-Dec-13 07:00N 30°06' W 093°18'0 0.0
2017-Dec-13 06:30N 30°06' W 093°18'0 0.7
2017-Dec-13 06:01N 30°06' W 093°19'0 0.1
2017-Dec-13 05:30N 30°06' W 093°19'0 0.0
2017-Dec-13 05:00N 30°06' W 093°19'0 0.0
2017-Dec-13 04:30N 30°06' W 093°19'0 0.0
2017-Dec-13 04:00N 30°06' W 093°19'1 2.3
2017-Dec-13 03:31N 30°05' W 093°20'2 4.3
2017-Dec-13 03:00N 30°04' W 093°21'0 0.0
2017-Dec-13 02:30N 30°04' W 093°21'0 0.0
2017-Dec-13 02:00N 30°04' W 093°21'0 0.0
2017-Dec-13 01:30N 30°04' W 093°21'0 0.0
2017-Dec-13 01:00N 30°04' W 093°21'0 0.0
2017-Dec-13 00:30N 30°04' W 093°21'0 0.3
2017-Dec-13 00:00N 30°04' W 093°21'2 3.7
2017-Dec-12 23:31N 30°05' W 093°20'0 0.0
2017-Dec-12 23:00N 30°05' W 093°20'0 0.5
2017-Dec-12 22:30N 30°05' W 093°20'0 0.0
2017-Dec-12 22:00N 30°05' W 093°20'0 0.0
2017-Dec-12 21:30N 30°05' W 093°20'1 1.9
2017-Dec-12 21:00N 30°06' W 093°20'0 0.0
2017-Dec-12 20:31N 30°06' W 093°20'0 0.2
2017-Dec-12 20:00N 30°06' W 093°20'0 0.0
2017-Dec-12 19:30N 30°06' W 093°20'0 0.1
2017-Dec-12 19:01N 30°06' W 093°20'1 1.5
2017-Dec-12 18:31N 30°05' W 093°20'2 3.7
2017-Dec-12 18:00N 30°04' W 093°21'0 0.7
2017-Dec-12 17:30N 30°04' W 093°22'0 0.8
2017-Dec-12 17:00N 30°04' W 093°21'0 0.8
2017-Dec-12 16:30N 30°04' W 093°22'0 0.8
2017-Dec-12 16:00N 30°04' W 093°21'0 0.0
2017-Dec-12 15:30N 30°04' W 093°21'0 0.1
2017-Dec-12 15:00N 30°04' W 093°21'0 0.0
2017-Dec-12 14:30N 30°04' W 093°21'0 0.7
2017-Dec-12 14:01N 30°04' W 093°22'0 0.7
2017-Dec-12 13:30N 30°04' W 093°21'0 0.6
2017-Dec-12 13:00N 30°04' W 093°22'0 0.8
2017-Dec-12 12:30N 30°04' W 093°22'4 7.6
2017-Dec-12 12:00N 30°04' W 093°26'6 7.2
2017-Dec-12 11:07N 30°04' W 093°34'1 7.4
2017-Dec-12 11:00N 30°04' W 093°35'74 7.0
2017-Dec-12 00:20N 29°23' W 094°46'2 4.9
2017-Dec-11 23:55N 29°23' W 094°49'8 8.1
2017-Dec-11 22:55N 29°30' W 094°53'3 8.0
2017-Dec-11 22:30N 29°33' W 094°55'4 8.0
2017-Dec-11 21:58N 29°37' W 094°57'4 7.9
2017-Dec-11 21:27N 29°41' W 094°59'8 3.5
2017-Dec-11 19:01N 29°46' W 095°06'0 0.1
2017-Dec-11 18:48N 29°46' W 095°06'1 2.4
2017-Dec-11 18:30N 29°46' W 095°05'3 5.4
2017-Dec-11 18:00N 29°44' W 095°03'3 5.1
2017-Dec-11 17:30N 29°42' W 095°01'0 0.2
2017-Dec-11 16:52N 29°42' W 095°01'6 1.8
2017-Dec-11 13:27N 29°46' W 095°06'0 0.0
2017-Dec-11 12:48N 29°46' W 095°06'1 0.0
2017-Dec-10 13:32N 29°47' W 095°06'0 0.0
2017-Dec-10 13:23N 29°47' W 095°06'0 0.0
2017-Dec-10 12:58N 29°47' W 095°06'0 0.0
2017-Dec-10 12:14N 29°47' W 095°06'0 0.0
2017-Dec-10 11:52N 29°47' W 095°06'0 0.0
2017-Dec-10 10:13N 29°47' W 095°06'0 0.0
2017-Dec-10 09:47N 29°47' W 095°06'0 0.0
2017-Dec-10 09:26N 29°47' W 095°06'0 0.0
2017-Dec-09 15:05N 29°47' W 095°06'0 0.0
2017-Dec-09 14:48N 29°47' W 095°06'0 0.0
2017-Dec-09 14:29N 29°47' W 095°06'0 0.0
2017-Dec-09 13:59N 29°47' W 095°06'0 0.0
2017-Dec-09 13:30N 29°47' W 095°06'0 0.0
2017-Dec-09 11:24N 29°47' W 095°06'0 0.0
2017-Dec-09 10:48N 29°47' W 095°06'0 0.0
2017-Dec-09 09:20N 29°47' W 095°06'0 0.0
2017-Dec-08 22:57N 29°47' W 095°06'1 0.3
2017-Dec-08 20:44N 29°46' W 095°06'  

Dump ship's entire track history